Aviation WX

[Source: ADDS]
METAR
KFKL 161130Z 1612/1712 24008KT P6SM VCSH OVC008 FM161400 23012G20KT P6SM VCSH OVC012 FM170000 25012KT P6SM VCSH OVC008 AMD NOT SKED TAF
KFKL 161130Z 1612/1712 24008KT P6SM VCSH OVC008 FM161400 23012G20KT P6SM VCSH OVC012 FM170000 25012KT P6SM VCSH OVC008 AMD NOT SKED =

Clarion Airport T-Shirts

small